Flight Track Log - Related Links

Times and Time Zones

All times are in EDT time to prevent confusion due to time zone crossing. See the QXE2087 flight status page for this flight to view local times or setup timezone preferences in your user account.


Time Position Orientation Groundspeed Altitude Reporting Facility
EDT Latitude Longitude Course Direction KTS MPH feet Rate Location/Type
Tue 09:41:00 AM 46.2752 -118.7905 298° West  Level Estimated
Tue 09:42:00 AM 46.3051 -118.8744 297° West  Level Estimated
Tue 09:43:00 AM 46.3349 -118.9584 297° West  Level Estimated
Tue 09:44:00 AM 46.3646 -119.0424 297° West  Level Estimated
Tue 09:45:00 AM 46.3943 -119.1266 297° West  Level Estimated
Tue 09:46:00 AM 46.4239 -119.2109 297° West  Level Estimated
Tue 09:47:00 AM 46.4535 -119.2952 297° West  Level Estimated
Tue 09:48:00 AM 46.4830 -119.3797 297° West  Level Estimated
Tue 09:49:00 AM 46.5124 -119.4642 297° West  Level Estimated
Tue 09:50:00 AM 46.5418 -119.5489 297° West  Level Estimated
Tue 09:51:00 AM 46.5711 -119.6336 297° West  Level Estimated
Tue 09:52:00 AM 46.6003 -119.7184 297° West  Level Estimated
Tue 09:53:00 AM 46.6295 -119.8033 297° West  Level Estimated
Tue 09:54:00 AM 46.6586 -119.8883 297° West  Level Estimated
Tue 09:55:00 AM 46.6877 -119.9734 296° West  Level Estimated
Tue 09:56:00 AM 46.7167 -120.0585 296° West  Level Estimated
Tue 09:57:00 AM 46.7456 -120.1438 296° West  Level Estimated
Tue 09:58:00 AM 46.7745 -120.2292 296° West  Level Estimated
Tue 09:59:00 AM 46.8033 -120.3146 296° West  Level Estimated
Tue 10:00:00 AM 46.8320 -120.4002 296° West  Level Estimated
Tue 10:01:00 AM 46.8607 -120.4858 296° West  Level Estimated
Tue 10:02:00 AM 46.8893 -120.5715 296° West  Level Estimated
Tue 10:03:00 AM 46.9178 -120.6574 296° West  Level Estimated
Tue 10:04:00 AM 46.9463 -120.7433 296° West  Level Estimated
Tue 10:05:00 AM 46.9747 -120.8293 296° West  Level Estimated
Tue 10:06:00 AM 47.0031 -120.9154 296° West  Level Estimated
Tue 10:07:00 AM 47.0314 -121.0015 296° West  Level Estimated
Tue 10:08:00 AM 47.0596 -121.0878 296° West  Level Estimated
Tue 10:09:00 AM 47.0877 -121.1742 296° West  Level Estimated
Tue 10:10:00 AM 47.1158 -121.2607 296° West  Level Estimated
Tue 10:11:00 AM 47.1439 -121.3472 295° West  Level Estimated
Tue 10:12:00 AM 47.1718 -121.4338 295° West  Level Estimated
Tue 10:13:00 AM 47.1997 -121.5206 295° West  Level Estimated
Tue 10:14:00 AM 47.2276 -121.6074 295° West  Level Estimated
Tue 10:15:00 AM 47.2553 -121.6943 295° West  Level Estimated
Tue 10:16:00 AM 47.2830 -121.7813 295° West  Level Estimated
Tue 10:17:00 AM 47.3107 -121.8684 295° West  Level Estimated
Tue 10:18:00 AM 47.3382 -121.9556 295° West  Level Estimated
Tue 10:19:00 AM 47.3657 -122.0429 295° West  Level Estimated
Tue 10:20:00 AM 47.3932 -122.1302 295° West  Level Estimated
Tue 10:21:00 AM 47.4206 -122.2177 295° West  Level Estimated
Tue 10:22:00 AM 47.4479 -122.3053 295° West  Level Estimated
Tue 10:23:00 AM 47.4499 -122.3118 295° West  Level Estimated
Tue 10:24:00 AM 47.4499 -122.3118 126° Southeast  Level Estimated
Tue 10:25:00 AM 47.4499 -122.3118 126° Southeast  Level Estimated
Tue 10:26:00 AM 47.4499 -122.3118 126° Southeast  Level Estimated
Tue 10:27:00 AM 47.4499 -122.3118 126° Southeast  Level Estimated
Tue 10:28:00 AM 47.4499 -122.3118 126° Southeast  Level Estimated
Tue 10:29:00 AM 47.4499 -122.3118 126° Southeast  Level Estimated
Tue 10:30:00 AM 47.4499 -122.3118 126° Southeast  Level Estimated
Tue 10:31:00 AM 47.4499 -122.3118 126° Southeast  Level Estimated

Login

Don't have an account? Register now (free) for customized features, flight alerts, and more!